sensor_id;sensor_type;location;lat;lon;timestamp;P1;durP1;ratioP1;P2;durP2;ratioP2
43150;SDS011;28755;51.478;5.702;2024-01-07T00:01:15;43.95;;;25.63;;
43150;SDS011;28755;51.478;5.702;2024-01-07T00:03:40;40.63;;;25.55;;
43150;SDS011;28755;51.478;5.702;2024-01-07T00:06:07;47.55;;;26.95;;
43150;SDS011;28755;51.478;5.702;2024-01-07T00:08:34;46.35;;;26.50;;
43150;SDS011;28755;51.478;5.702;2024-01-07T00:11:00;44.38;;;25.80;;
43150;SDS011;28755;51.478;5.702;2024-01-07T00:13:26;42.72;;;25.17;;
43150;SDS011;28755;51.478;5.702;2024-01-07T00:15:51;40.58;;;24.92;;
43150;SDS011;28755;51.478;5.702;2024-01-07T00:18:19;39.60;;;24.70;;
43150;SDS011;28755;51.478;5.702;2024-01-07T00:20:44;44.17;;;25.42;;
43150;SDS011;28755;51.478;5.702;2024-01-07T00:23:10;36.72;;;23.80;;
43150;SDS011;28755;51.478;5.702;2024-01-07T00:25:35;41.28;;;24.65;;
43150;SDS011;28755;51.478;5.702;2024-01-07T00:28:01;43.05;;;25.63;;
43150;SDS011;28755;51.478;5.702;2024-01-07T00:30:27;36.30;;;23.42;;
43150;SDS011;28755;51.478;5.702;2024-01-07T00:32:52;41.97;;;23.77;;
43150;SDS011;28755;51.478;5.702;2024-01-07T00:35:18;37.30;;;24.02;;
43150;SDS011;28755;51.478;5.702;2024-01-07T00:37:43;36.25;;;23.02;;
43150;SDS011;28755;51.478;5.702;2024-01-07T00:40:09;37.88;;;23.92;;
43150;SDS011;28755;51.478;5.702;2024-01-07T00:42:35;36.85;;;23.45;;
43150;SDS011;28755;51.478;5.702;2024-01-07T00:45:01;39.50;;;22.48;;
43150;SDS011;28755;51.478;5.702;2024-01-07T00:47:26;36.05;;;22.83;;
43150;SDS011;28755;51.478;5.702;2024-01-07T00:49:52;36.17;;;22.55;;
43150;SDS011;28755;51.478;5.702;2024-01-07T00:52:18;32.25;;;20.75;;
43150;SDS011;28755;51.478;5.702;2024-01-07T00:54:43;32.63;;;20.17;;
43150;SDS011;28755;51.478;5.702;2024-01-07T00:57:10;33.45;;;20.60;;
43150;SDS011;28755;51.478;5.702;2024-01-07T00:59:36;31.45;;;20.67;;
43150;SDS011;28755;51.478;5.702;2024-01-07T01:02:02;31.63;;;20.52;;
43150;SDS011;28755;51.478;5.702;2024-01-07T01:04:27;32.28;;;21.25;;
43150;SDS011;28755;51.478;5.702;2024-01-07T01:06:53;34.28;;;20.00;;
43150;SDS011;28755;51.478;5.702;2024-01-07T01:09:18;32.25;;;19.85;;
43150;SDS011;28755;51.478;5.702;2024-01-07T01:11:44;33.58;;;21.60;;
43150;SDS011;28755;51.478;5.702;2024-01-07T01:14:10;36.13;;;22.08;;
43150;SDS011;28755;51.478;5.702;2024-01-07T01:16:35;33.13;;;21.38;;
43150;SDS011;28755;51.478;5.702;2024-01-07T01:19:01;35.38;;;22.35;;
43150;SDS011;28755;51.478;5.702;2024-01-07T01:21:26;33.80;;;20.52;;
43150;SDS011;28755;51.478;5.702;2024-01-07T01:23:52;34.70;;;22.15;;
43150;SDS011;28755;51.478;5.702;2024-01-07T01:26:17;35.78;;;22.33;;
43150;SDS011;28755;51.478;5.702;2024-01-07T01:28:43;35.30;;;22.38;;
43150;SDS011;28755;51.478;5.702;2024-01-07T01:31:12;36.28;;;22.38;;
43150;SDS011;28755;51.478;5.702;2024-01-07T01:33:38;40.25;;;23.92;;
43150;SDS011;28755;51.478;5.702;2024-01-07T01:36:04;37.88;;;22.27;;
43150;SDS011;28755;51.478;5.702;2024-01-07T01:38:31;39.17;;;22.58;;
43150;SDS011;28755;51.478;5.702;2024-01-07T01:40:56;37.13;;;20.73;;
43150;SDS011;28755;51.478;5.702;2024-01-07T01:43:28;34.55;;;20.88;;
43150;SDS011;28755;51.478;5.702;2024-01-07T01:45:54;38.25;;;21.25;;
43150;SDS011;28755;51.478;5.702;2024-01-07T01:48:21;36.47;;;21.60;;
43150;SDS011;28755;51.478;5.702;2024-01-07T01:50:48;39.40;;;21.45;;
43150;SDS011;28755;51.478;5.702;2024-01-07T01:53:15;40.30;;;23.17;;
43150;SDS011;28755;51.478;5.702;2024-01-07T01:55:41;42.95;;;23.05;;
43150;SDS011;28755;51.478;5.702;2024-01-07T01:58:08;42.60;;;22.90;;
43150;SDS011;28755;51.478;5.702;2024-01-07T02:00:34;38.97;;;22.13;;
43150;SDS011;28755;51.478;5.702;2024-01-07T02:03:01;40.58;;;24.05;;
43150;SDS011;28755;51.478;5.702;2024-01-07T02:05:27;42.63;;;24.02;;
43150;SDS011;28755;51.478;5.702;2024-01-07T02:07:53;40.83;;;23.38;;
43150;SDS011;28755;51.478;5.702;2024-01-07T02:10:21;43.20;;;24.13;;
43150;SDS011;28755;51.478;5.702;2024-01-07T02:12:47;50.97;;;26.42;;
43150;SDS011;28755;51.478;5.702;2024-01-07T02:15:13;46.17;;;25.80;;
43150;SDS011;28755;51.478;5.702;2024-01-07T02:17:39;46.08;;;25.83;;
43150;SDS011;28755;51.478;5.702;2024-01-07T02:20:05;50.60;;;27.70;;
43150;SDS011;28755;51.478;5.702;2024-01-07T02:22:31;54.70;;;27.73;;
43150;SDS011;28755;51.478;5.702;2024-01-07T02:24:56;64.78;;;31.30;;
43150;SDS011;28755;51.478;5.702;2024-01-07T02:27:22;59.17;;;30.23;;
43150;SDS011;28755;51.478;5.702;2024-01-07T02:29:48;64.30;;;32.17;;
43150;SDS011;28755;51.478;5.702;2024-01-07T02:32:13;61.33;;;30.55;;
43150;SDS011;28755;51.478;5.702;2024-01-07T02:34:39;70.43;;;32.47;;
43150;SDS011;28755;51.478;5.702;2024-01-07T02:37:04;67.78;;;31.80;;
43150;SDS011;28755;51.478;5.702;2024-01-07T02:39:30;66.32;;;30.88;;
43150;SDS011;28755;51.478;5.702;2024-01-07T02:41:56;67.05;;;32.22;;
43150;SDS011;28755;51.478;5.702;2024-01-07T02:44:22;70.28;;;31.67;;
43150;SDS011;28755;51.478;5.702;2024-01-07T02:46:48;68.25;;;31.17;;
43150;SDS011;28755;51.478;5.702;2024-01-07T02:49:13;63.63;;;30.25;;
43150;SDS011;28755;51.478;5.702;2024-01-07T02:51:39;58.90;;;28.90;;
43150;SDS011;28755;51.478;5.702;2024-01-07T02:54:04;56.13;;;28.55;;
43150;SDS011;28755;51.478;5.702;2024-01-07T02:56:30;53.05;;;25.60;;
43150;SDS011;28755;51.478;5.702;2024-01-07T02:58:56;49.72;;;26.45;;
43150;SDS011;28755;51.478;5.702;2024-01-07T03:01:22;52.00;;;28.45;;
43150;SDS011;28755;51.478;5.702;2024-01-07T03:03:48;51.08;;;26.05;;
43150;SDS011;28755;51.478;5.702;2024-01-07T03:06:14;46.67;;;25.52;;
43150;SDS011;28755;51.478;5.702;2024-01-07T03:08:39;45.45;;;24.27;;
43150;SDS011;28755;51.478;5.702;2024-01-07T03:11:05;45.75;;;24.98;;
43150;SDS011;28755;51.478;5.702;2024-01-07T03:13:31;46.10;;;24.65;;
43150;SDS011;28755;51.478;5.702;2024-01-07T03:15:57;48.58;;;25.60;;
43150;SDS011;28755;51.478;5.702;2024-01-07T03:18:23;50.45;;;25.98;;
43150;SDS011;28755;51.478;5.702;2024-01-07T03:20:48;49.40;;;25.45;;
43150;SDS011;28755;51.478;5.702;2024-01-07T03:23:14;44.78;;;24.20;;
43150;SDS011;28755;51.478;5.702;2024-01-07T03:25:40;45.72;;;24.25;;
43150;SDS011;28755;51.478;5.702;2024-01-07T03:28:06;42.03;;;22.55;;
43150;SDS011;28755;51.478;5.702;2024-01-07T03:30:31;41.90;;;24.00;;
43150;SDS011;28755;51.478;5.702;2024-01-07T03:32:57;40.47;;;22.80;;
43150;SDS011;28755;51.478;5.702;2024-01-07T03:35:22;43.90;;;22.92;;
43150;SDS011;28755;51.478;5.702;2024-01-07T03:37:49;39.25;;;22.02;;
43150;SDS011;28755;51.478;5.702;2024-01-07T03:40:15;38.30;;;21.85;;
43150;SDS011;28755;51.478;5.702;2024-01-07T03:42:40;39.38;;;22.08;;
43150;SDS011;28755;51.478;5.702;2024-01-07T03:45:06;39.03;;;21.90;;
43150;SDS011;28755;51.478;5.702;2024-01-07T03:47:32;38.47;;;21.67;;
43150;SDS011;28755;51.478;5.702;2024-01-07T03:49:57;37.88;;;20.38;;
43150;SDS011;28755;51.478;5.702;2024-01-07T03:52:23;36.13;;;20.33;;
43150;SDS011;28755;51.478;5.702;2024-01-07T03:54:49;36.97;;;21.83;;
43150;SDS011;28755;51.478;5.702;2024-01-07T03:57:14;43.60;;;22.67;;
43150;SDS011;28755;51.478;5.702;2024-01-07T03:59:40;38.95;;;21.50;;
43150;SDS011;28755;51.478;5.702;2024-01-07T04:02:05;40.92;;;22.23;;
43150;SDS011;28755;51.478;5.702;2024-01-07T04:04:31;43.33;;;22.92;;
43150;SDS011;28755;51.478;5.702;2024-01-07T04:06:57;36.70;;;21.92;;
43150;SDS011;28755;51.478;5.702;2024-01-07T04:09:22;36.05;;;20.77;;
43150;SDS011;28755;51.478;5.702;2024-01-07T04:11:48;38.17;;;21.33;;
43150;SDS011;28755;51.478;5.702;2024-01-07T04:14:15;42.47;;;21.23;;
43150;SDS011;28755;51.478;5.702;2024-01-07T04:16:41;37.83;;;20.63;;
43150;SDS011;28755;51.478;5.702;2024-01-07T04:19:07;34.63;;;19.75;;
43150;SDS011;28755;51.478;5.702;2024-01-07T04:21:32;37.38;;;20.05;;
43150;SDS011;28755;51.478;5.702;2024-01-07T04:23:58;33.85;;;19.27;;
43150;SDS011;28755;51.478;5.702;2024-01-07T04:26:23;34.72;;;19.27;;
43150;SDS011;28755;51.478;5.702;2024-01-07T04:28:49;32.63;;;19.27;;
43150;SDS011;28755;51.478;5.702;2024-01-07T04:31:15;30.10;;;18.13;;
43150;SDS011;28755;51.478;5.702;2024-01-07T04:33:40;35.35;;;19.58;;
43150;SDS011;28755;51.478;5.702;2024-01-07T04:36:06;30.67;;;18.88;;
43150;SDS011;28755;51.478;5.702;2024-01-07T04:38:32;30.33;;;18.58;;
43150;SDS011;28755;51.478;5.702;2024-01-07T04:40:57;30.48;;;18.42;;
43150;SDS011;28755;51.478;5.702;2024-01-07T04:43:23;32.70;;;18.90;;
43150;SDS011;28755;51.478;5.702;2024-01-07T04:45:49;30.73;;;18.63;;
43150;SDS011;28755;51.478;5.702;2024-01-07T04:48:14;32.10;;;18.42;;
43150;SDS011;28755;51.478;5.702;2024-01-07T04:50:40;29.52;;;17.52;;
43150;SDS011;28755;51.478;5.702;2024-01-07T04:53:08;26.20;;;16.42;;
43150;SDS011;28755;51.478;5.702;2024-01-07T04:55:35;32.22;;;18.30;;
43150;SDS011;28755;51.478;5.702;2024-01-07T04:58:01;26.02;;;15.95;;
43150;SDS011;28755;51.478;5.702;2024-01-07T05:00:29;27.00;;;16.65;;
43150;SDS011;28755;51.478;5.702;2024-01-07T05:02:54;25.65;;;16.08;;
43150;SDS011;28755;51.478;5.702;2024-01-07T05:05:20;26.88;;;16.98;;
43150;SDS011;28755;51.478;5.702;2024-01-07T05:07:46;24.65;;;15.73;;
43150;SDS011;28755;51.478;5.702;2024-01-07T05:10:11;27.27;;;16.65;;
43150;SDS011;28755;51.478;5.702;2024-01-07T05:12:37;26.25;;;15.98;;
43150;SDS011;28755;51.478;5.702;2024-01-07T05:15:03;26.35;;;16.27;;
43150;SDS011;28755;51.478;5.702;2024-01-07T05:17:29;27.73;;;16.67;;
43150;SDS011;28755;51.478;5.702;2024-01-07T05:19:55;24.38;;;16.80;;
43150;SDS011;28755;51.478;5.702;2024-01-07T05:22:21;23.63;;;16.58;;
43150;SDS011;28755;51.478;5.702;2024-01-07T05:24:46;25.63;;;15.50;;
43150;SDS011;28755;51.478;5.702;2024-01-07T05:27:12;24.52;;;14.82;;
43150;SDS011;28755;51.478;5.702;2024-01-07T05:29:38;24.45;;;15.00;;
43150;SDS011;28755;51.478;5.702;2024-01-07T05:32:04;23.17;;;15.27;;
43150;SDS011;28755;51.478;5.702;2024-01-07T05:34:30;24.45;;;15.82;;
43150;SDS011;28755;51.478;5.702;2024-01-07T05:36:55;20.90;;;14.70;;
43150;SDS011;28755;51.478;5.702;2024-01-07T05:39:21;22.50;;;15.20;;
43150;SDS011;28755;51.478;5.702;2024-01-07T05:41:47;24.08;;;16.13;;
43150;SDS011;28755;51.478;5.702;2024-01-07T05:44:12;22.95;;;15.02;;
43150;SDS011;28755;51.478;5.702;2024-01-07T05:46:38;25.10;;;16.77;;
43150;SDS011;28755;51.478;5.702;2024-01-07T05:49:04;26.70;;;16.63;;
43150;SDS011;28755;51.478;5.702;2024-01-07T05:51:30;23.98;;;15.95;;
43150;SDS011;28755;51.478;5.702;2024-01-07T05:53:56;23.50;;;15.38;;
43150;SDS011;28755;51.478;5.702;2024-01-07T05:56:21;23.02;;;14.57;;
43150;SDS011;28755;51.478;5.702;2024-01-07T05:58:47;23.25;;;15.55;;
43150;SDS011;28755;51.478;5.702;2024-01-07T06:01:17;24.00;;;15.32;;
43150;SDS011;28755;51.478;5.702;2024-01-07T06:03:46;21.45;;;14.55;;
43150;SDS011;28755;51.478;5.702;2024-01-07T06:06:13;20.67;;;13.98;;
43150;SDS011;28755;51.478;5.702;2024-01-07T06:08:40;23.80;;;13.68;;
43150;SDS011;28755;51.478;5.702;2024-01-07T06:11:09;19.03;;;13.23;;
43150;SDS011;28755;51.478;5.702;2024-01-07T06:13:37;19.30;;;13.38;;
43150;SDS011;28755;51.478;5.702;2024-01-07T06:16:02;20.33;;;13.57;;
43150;SDS011;28755;51.478;5.702;2024-01-07T06:18:28;19.33;;;13.38;;
43150;SDS011;28755;51.478;5.702;2024-01-07T06:20:54;20.40;;;13.48;;
43150;SDS011;28755;51.478;5.702;2024-01-07T06:23:19;23.50;;;13.52;;
43150;SDS011;28755;51.478;5.702;2024-01-07T06:25:45;18.40;;;13.07;;
43150;SDS011;28755;51.478;5.702;2024-01-07T06:28:10;19.55;;;13.35;;
43150;SDS011;28755;51.478;5.702;2024-01-07T06:30:36;18.92;;;13.40;;
43150;SDS011;28755;51.478;5.702;2024-01-07T06:33:02;18.17;;;13.07;;
43150;SDS011;28755;51.478;5.702;2024-01-07T06:35:27;20.10;;;13.10;;
43150;SDS011;28755;51.478;5.702;2024-01-07T06:37:53;19.02;;;12.65;;
43150;SDS011;28755;51.478;5.702;2024-01-07T06:40:19;21.83;;;13.70;;
43150;SDS011;28755;51.478;5.702;2024-01-07T06:42:45;19.58;;;13.85;;
43150;SDS011;28755;51.478;5.702;2024-01-07T06:45:12;21.30;;;13.90;;
43150;SDS011;28755;51.478;5.702;2024-01-07T06:47:39;20.45;;;13.32;;
43150;SDS011;28755;51.478;5.702;2024-01-07T06:50:05;19.67;;;13.18;;
43150;SDS011;28755;51.478;5.702;2024-01-07T06:52:31;19.48;;;13.32;;
43150;SDS011;28755;51.478;5.702;2024-01-07T06:54:57;17.50;;;12.82;;
43150;SDS011;28755;51.478;5.702;2024-01-07T06:57:23;20.85;;;13.43;;
43150;SDS011;28755;51.478;5.702;2024-01-07T06:59:48;19.90;;;13.75;;
43150;SDS011;28755;51.478;5.702;2024-01-07T07:02:14;18.98;;;13.13;;
43150;SDS011;28755;51.478;5.702;2024-01-07T07:04:39;18.80;;;13.63;;
43150;SDS011;28755;51.478;5.702;2024-01-07T07:07:05;18.63;;;13.30;;
43150;SDS011;28755;51.478;5.702;2024-01-07T07:09:30;20.40;;;13.70;;
43150;SDS011;28755;51.478;5.702;2024-01-07T07:11:56;21.38;;;13.60;;
43150;SDS011;28755;51.478;5.702;2024-01-07T07:14:22;18.33;;;13.30;;
43150;SDS011;28755;51.478;5.702;2024-01-07T07:16:47;21.13;;;14.10;;
43150;SDS011;28755;51.478;5.702;2024-01-07T07:19:13;21.40;;;14.18;;
43150;SDS011;28755;51.478;5.702;2024-01-07T07:21:40;22.73;;;14.68;;
43150;SDS011;28755;51.478;5.702;2024-01-07T07:24:06;22.05;;;14.27;;
43150;SDS011;28755;51.478;5.702;2024-01-07T07:26:31;23.70;;;15.23;;
43150;SDS011;28755;51.478;5.702;2024-01-07T07:28:58;23.45;;;16.48;;
43150;SDS011;28755;51.478;5.702;2024-01-07T07:31:25;23.42;;;15.60;;
43150;SDS011;28755;51.478;5.702;2024-01-07T07:33:50;23.98;;;15.70;;
43150;SDS011;28755;51.478;5.702;2024-01-07T07:36:17;23.75;;;15.35;;
43150;SDS011;28755;51.478;5.702;2024-01-07T07:38:42;24.58;;;15.77;;
43150;SDS011;28755;51.478;5.702;2024-01-07T07:41:08;24.15;;;15.68;;
43150;SDS011;28755;51.478;5.702;2024-01-07T07:43:33;23.20;;;15.18;;
43150;SDS011;28755;51.478;5.702;2024-01-07T07:45:59;26.15;;;15.07;;
43150;SDS011;28755;51.478;5.702;2024-01-07T07:48:26;21.23;;;14.98;;
43150;SDS011;28755;51.478;5.702;2024-01-07T07:50:53;23.23;;;15.00;;
43150;SDS011;28755;51.478;5.702;2024-01-07T07:53:18;21.40;;;14.38;;
43150;SDS011;28755;51.478;5.702;2024-01-07T07:55:44;21.67;;;14.40;;
43150;SDS011;28755;51.478;5.702;2024-01-07T07:58:09;22.95;;;14.05;;
43150;SDS011;28755;51.478;5.702;2024-01-07T08:00:35;23.83;;;14.45;;
43150;SDS011;28755;51.478;5.702;2024-01-07T08:03:00;23.50;;;15.10;;
43150;SDS011;28755;51.478;5.702;2024-01-07T08:05:26;21.10;;;14.52;;
43150;SDS011;28755;51.478;5.702;2024-01-07T08:07:52;23.77;;;14.75;;
43150;SDS011;28755;51.478;5.702;2024-01-07T08:10:17;21.38;;;13.65;;
43150;SDS011;28755;51.478;5.702;2024-01-07T08:12:43;21.10;;;14.20;;
43150;SDS011;28755;51.478;5.702;2024-01-07T08:15:08;20.58;;;13.43;;
43150;SDS011;28755;51.478;5.702;2024-01-07T08:17:34;19.80;;;12.98;;
43150;SDS011;28755;51.478;5.702;2024-01-07T08:20:00;22.65;;;14.15;;
43150;SDS011;28755;51.478;5.702;2024-01-07T08:22:26;22.98;;;14.20;;
43150;SDS011;28755;51.478;5.702;2024-01-07T08:24:52;20.52;;;14.10;;
43150;SDS011;28755;51.478;5.702;2024-01-07T08:27:18;23.63;;;13.90;;
43150;SDS011;28755;51.478;5.702;2024-01-07T08:29:44;23.13;;;14.68;;
43150;SDS011;28755;51.478;5.702;2024-01-07T08:32:10;23.85;;;14.95;;
43150;SDS011;28755;51.478;5.702;2024-01-07T08:34:37;23.83;;;14.40;;
43150;SDS011;28755;51.478;5.702;2024-01-07T08:37:04;20.80;;;12.90;;
43150;SDS011;28755;51.478;5.702;2024-01-07T08:39:29;23.60;;;14.00;;
43150;SDS011;28755;51.478;5.702;2024-01-07T08:41:55;19.90;;;13.27;;
43150;SDS011;28755;51.478;5.702;2024-01-07T08:44:21;21.02;;;13.70;;
43150;SDS011;28755;51.478;5.702;2024-01-07T08:46:47;21.33;;;14.00;;
43150;SDS011;28755;51.478;5.702;2024-01-07T08:49:12;21.65;;;12.93;;
43150;SDS011;28755;51.478;5.702;2024-01-07T08:51:38;20.45;;;13.55;;
43150;SDS011;28755;51.478;5.702;2024-01-07T08:54:04;20.30;;;13.23;;
43150;SDS011;28755;51.478;5.702;2024-01-07T08:56:30;21.33;;;14.20;;
43150;SDS011;28755;51.478;5.702;2024-01-07T08:58:55;19.73;;;13.43;;
43150;SDS011;28755;51.478;5.702;2024-01-07T09:01:21;21.67;;;14.10;;
43150;SDS011;28755;51.478;5.702;2024-01-07T09:03:46;18.63;;;12.68;;
43150;SDS011;28755;51.478;5.702;2024-01-07T09:06:12;20.10;;;12.27;;
43150;SDS011;28755;51.478;5.702;2024-01-07T09:08:38;21.33;;;13.23;;
43150;SDS011;28755;51.478;5.702;2024-01-07T09:11:03;22.55;;;13.60;;
43150;SDS011;28755;51.478;5.702;2024-01-07T09:13:31;24.83;;;14.00;;
43150;SDS011;28755;51.478;5.702;2024-01-07T09:15:57;18.98;;;12.45;;
43150;SDS011;28755;51.478;5.702;2024-01-07T09:18:23;19.55;;;12.63;;
43150;SDS011;28755;51.478;5.702;2024-01-07T09:20:48;19.05;;;13.05;;
43150;SDS011;28755;51.478;5.702;2024-01-07T09:23:14;19.13;;;12.60;;
43150;SDS011;28755;51.478;5.702;2024-01-07T09:25:40;18.20;;;12.20;;
43150;SDS011;28755;51.478;5.702;2024-01-07T09:28:07;17.67;;;12.18;;
43150;SDS011;28755;51.478;5.702;2024-01-07T09:30:32;18.60;;;12.40;;
43150;SDS011;28755;51.478;5.702;2024-01-07T09:32:58;15.80;;;12.15;;
43150;SDS011;28755;51.478;5.702;2024-01-07T09:35:24;18.38;;;12.68;;
43150;SDS011;28755;51.478;5.702;2024-01-07T09:37:50;18.27;;;12.02;;
43150;SDS011;28755;51.478;5.702;2024-01-07T09:40:19;17.90;;;12.15;;
43150;SDS011;28755;51.478;5.702;2024-01-07T09:42:44;19.90;;;12.32;;
43150;SDS011;28755;51.478;5.702;2024-01-07T09:45:12;17.25;;;12.60;;
43150;SDS011;28755;51.478;5.702;2024-01-07T09:47:41;18.02;;;11.63;;
43150;SDS011;28755;51.478;5.702;2024-01-07T09:50:09;16.33;;;11.68;;
43150;SDS011;28755;51.478;5.702;2024-01-07T09:52:35;16.13;;;11.10;;
43150;SDS011;28755;51.478;5.702;2024-01-07T09:55:08;16.73;;;11.43;;
43150;SDS011;28755;51.478;5.702;2024-01-07T09:57:36;16.42;;;10.98;;
43150;SDS011;28755;51.478;5.702;2024-01-07T10:00:05;16.50;;;11.43;;
43150;SDS011;28755;51.478;5.702;2024-01-07T10:02:32;15.70;;;10.82;;
43150;SDS011;28755;51.478;5.702;2024-01-07T10:04:58;16.20;;;11.63;;
43150;SDS011;28755;51.478;5.702;2024-01-07T10:07:24;16.75;;;10.45;;
43150;SDS011;28755;51.478;5.702;2024-01-07T10:09:50;17.50;;;11.15;;
43150;SDS011;28755;51.478;5.702;2024-01-07T10:12:18;15.60;;;10.40;;
43150;SDS011;28755;51.478;5.702;2024-01-07T10:14:48;15.25;;;10.80;;
43150;SDS011;28755;51.478;5.702;2024-01-07T10:17:14;15.23;;;10.68;;
43150;SDS011;28755;51.478;5.702;2024-01-07T10:19:44;14.60;;;10.45;;
43150;SDS011;28755;51.478;5.702;2024-01-07T10:22:12;14.13;;;10.48;;
43150;SDS011;28755;51.478;5.702;2024-01-07T10:24:39;13.30;;;10.25;;
43150;SDS011;28755;51.478;5.702;2024-01-07T10:27:06;16.38;;;10.23;;
43150;SDS011;28755;51.478;5.702;2024-01-07T10:29:32;14.07;;;10.30;;
43150;SDS011;28755;51.478;5.702;2024-01-07T10:32:01;15.23;;;11.38;;
43150;SDS011;28755;51.478;5.702;2024-01-07T10:34:29;14.82;;;11.32;;
43150;SDS011;28755;51.478;5.702;2024-01-07T10:36:56;15.40;;;10.73;;
43150;SDS011;28755;51.478;5.702;2024-01-07T10:39:27;13.02;;;10.40;;
43150;SDS011;28755;51.478;5.702;2024-01-07T10:41:54;13.70;;;10.63;;
43150;SDS011;28755;51.478;5.702;2024-01-07T10:44:27;13.13;;;10.07;;
43150;SDS011;28755;51.478;5.702;2024-01-07T10:46:55;13.77;;;10.30;;
43150;SDS011;28755;51.478;5.702;2024-01-07T10:49:21;14.63;;;9.48;;
43150;SDS011;28755;51.478;5.702;2024-01-07T10:52:04;13.50;;;9.43;;
43150;SDS011;28755;51.478;5.702;2024-01-07T10:54:31;12.75;;;9.25;;
43150;SDS011;28755;51.478;5.702;2024-01-07T10:56:59;14.90;;;8.77;;
43150;SDS011;28755;51.478;5.702;2024-01-07T10:59:29;13.88;;;9.05;;
43150;SDS011;28755;51.478;5.702;2024-01-07T11:01:58;13.60;;;9.93;;
43150;SDS011;28755;51.478;5.702;2024-01-07T11:04:29;13.20;;;9.98;;
43150;SDS011;28755;51.478;5.702;2024-01-07T11:07:05;11.65;;;9.35;;
43150;SDS011;28755;51.478;5.702;2024-01-07T11:09:46;12.23;;;9.60;;
43150;SDS011;28755;51.478;5.702;2024-01-07T11:12:35;12.55;;;8.90;;
43150;SDS011;28755;51.478;5.702;2024-01-07T11:15:01;12.00;;;9.27;;
43150;SDS011;28755;51.478;5.702;2024-01-07T11:20:05;12.65;;;9.85;;
43150;SDS011;28755;51.478;5.702;2024-01-07T11:22:33;13.48;;;9.80;;
43150;SDS011;28755;51.478;5.702;2024-01-07T11:25:01;13.05;;;8.80;;
43150;SDS011;28755;51.478;5.702;2024-01-07T11:27:31;11.50;;;8.90;;
43150;SDS011;28755;51.478;5.702;2024-01-07T11:30:07;11.10;;;8.35;;
43150;SDS011;28755;51.478;5.702;2024-01-07T11:32:44;11.23;;;8.50;;
43150;SDS011;28755;51.478;5.702;2024-01-07T11:35:13;13.45;;;9.07;;
43150;SDS011;28755;51.478;5.702;2024-01-07T11:37:38;12.57;;;9.02;;
43150;SDS011;28755;51.478;5.702;2024-01-07T11:40:05;13.30;;;9.48;;
43150;SDS011;28755;51.478;5.702;2024-01-07T11:42:32;13.95;;;9.50;;
43150;SDS011;28755;51.478;5.702;2024-01-07T11:44:57;12.73;;;9.15;;
43150;SDS011;28755;51.478;5.702;2024-01-07T11:47:23;16.70;;;11.43;;
43150;SDS011;28755;51.478;5.702;2024-01-07T11:49:52;17.75;;;11.10;;
43150;SDS011;28755;51.478;5.702;2024-01-07T11:52:18;17.13;;;10.98;;
43150;SDS011;28755;51.478;5.702;2024-01-07T11:54:45;17.20;;;10.23;;
43150;SDS011;28755;51.478;5.702;2024-01-07T11:57:12;15.70;;;10.68;;
43150;SDS011;28755;51.478;5.702;2024-01-07T11:59:38;15.15;;;10.63;;
43150;SDS011;28755;51.478;5.702;2024-01-07T12:02:04;14.85;;;9.95;;
43150;SDS011;28755;51.478;5.702;2024-01-07T12:04:31;14.50;;;10.15;;
43150;SDS011;28755;51.478;5.702;2024-01-07T12:06:57;16.02;;;9.85;;
43150;SDS011;28755;51.478;5.702;2024-01-07T12:09:23;12.20;;;8.45;;
43150;SDS011;28755;51.478;5.702;2024-01-07T12:11:49;11.88;;;8.25;;
43150;SDS011;28755;51.478;5.702;2024-01-07T12:14:15;12.30;;;8.57;;
43150;SDS011;28755;51.478;5.702;2024-01-07T12:16:41;14.05;;;8.80;;
43150;SDS011;28755;51.478;5.702;2024-01-07T12:19:10;13.45;;;8.55;;
43150;SDS011;28755;51.478;5.702;2024-01-07T12:21:36;12.07;;;8.30;;
43150;SDS011;28755;51.478;5.702;2024-01-07T12:24:03;11.20;;;7.97;;
43150;SDS011;28755;51.478;5.702;2024-01-07T12:26:29;11.93;;;7.65;;
43150;SDS011;28755;51.478;5.702;2024-01-07T12:28:58;9.15;;;6.55;;
43150;SDS011;28755;51.478;5.702;2024-01-07T12:31:34;10.60;;;6.63;;
43150;SDS011;28755;51.478;5.702;2024-01-07T12:34:01;9.07;;;6.03;;
43150;SDS011;28755;51.478;5.702;2024-01-07T12:36:29;8.32;;;6.35;;
43150;SDS011;28755;51.478;5.702;2024-01-07T12:38:55;8.55;;;6.30;;
43150;SDS011;28755;51.478;5.702;2024-01-07T12:41:22;10.07;;;6.57;;
43150;SDS011;28755;51.478;5.702;2024-01-07T12:43:48;13.80;;;6.05;;
43150;SDS011;28755;51.478;5.702;2024-01-07T12:46:15;9.77;;;6.18;;
43150;SDS011;28755;51.478;5.702;2024-01-07T12:48:40;10.38;;;6.22;;
43150;SDS011;28755;51.478;5.702;2024-01-07T12:51:06;9.52;;;5.93;;
43150;SDS011;28755;51.478;5.702;2024-01-07T12:53:31;12.55;;;6.50;;
43150;SDS011;28755;51.478;5.702;2024-01-07T12:55:57;7.43;;;6.20;;
43150;SDS011;28755;51.478;5.702;2024-01-07T12:58:23;7.20;;;6.10;;
43150;SDS011;28755;51.478;5.702;2024-01-07T13:00:48;8.35;;;5.75;;
43150;SDS011;28755;51.478;5.702;2024-01-07T13:03:14;7.80;;;5.32;;
43150;SDS011;28755;51.478;5.702;2024-01-07T13:05:46;9.35;;;5.00;;
43150;SDS011;28755;51.478;5.702;2024-01-07T13:08:15;7.13;;;5.03;;
43150;SDS011;28755;51.478;5.702;2024-01-07T13:10:43;7.55;;;5.28;;
43150;SDS011;28755;51.478;5.702;2024-01-07T13:13:09;5.55;;;4.78;;
43150;SDS011;28755;51.478;5.702;2024-01-07T13:15:37;8.27;;;5.25;;
43150;SDS011;28755;51.478;5.702;2024-01-07T13:18:03;7.68;;;5.22;;
43150;SDS011;28755;51.478;5.702;2024-01-07T13:20:29;6.50;;;4.38;;
43150;SDS011;28755;51.478;5.702;2024-01-07T13:22:54;7.40;;;4.85;;
43150;SDS011;28755;51.478;5.702;2024-01-07T13:25:20;6.85;;;4.22;;
43150;SDS011;28755;51.478;5.702;2024-01-07T13:27:46;4.93;;;3.60;;
43150;SDS011;28755;51.478;5.702;2024-01-07T13:30:11;4.45;;;3.67;;
43150;SDS011;28755;51.478;5.702;2024-01-07T13:32:37;4.75;;;3.10;;
43150;SDS011;28755;51.478;5.702;2024-01-07T13:35:03;5.72;;;3.17;;
43150;SDS011;28755;51.478;5.702;2024-01-07T13:37:30;4.25;;;2.80;;
43150;SDS011;28755;51.478;5.702;2024-01-07T13:39:58;3.58;;;2.80;;
43150;SDS011;28755;51.478;5.702;2024-01-07T13:42:24;3.78;;;2.92;;
43150;SDS011;28755;51.478;5.702;2024-01-07T13:44:49;6.07;;;2.90;;
43150;SDS011;28755;51.478;5.702;2024-01-07T13:47:15;3.75;;;3.10;;
43150;SDS011;28755;51.478;5.702;2024-01-07T13:49:42;7.97;;;3.22;;
43150;SDS011;28755;51.478;5.702;2024-01-07T13:52:17;4.53;;;2.97;;
43150;SDS011;28755;51.478;5.702;2024-01-07T13:54:43;5.40;;;3.33;;
43150;SDS011;28755;51.478;5.702;2024-01-07T13:57:08;4.07;;;3.28;;
43150;SDS011;28755;51.478;5.702;2024-01-07T13:59:34;3.92;;;2.78;;
43150;SDS011;28755;51.478;5.702;2024-01-07T14:02:00;5.32;;;3.00;;
43150;SDS011;28755;51.478;5.702;2024-01-07T14:04:27;5.85;;;3.00;;
43150;SDS011;28755;51.478;5.702;2024-01-07T14:06:56;3.70;;;3.00;;
43150;SDS011;28755;51.478;5.702;2024-01-07T14:09:22;4.95;;;2.95;;
43150;SDS011;28755;51.478;5.702;2024-01-07T14:11:48;4.05;;;2.97;;
43150;SDS011;28755;51.478;5.702;2024-01-07T14:14:13;3.85;;;2.97;;
43150;SDS011;28755;51.478;5.702;2024-01-07T14:16:39;4.90;;;3.03;;
43150;SDS011;28755;51.478;5.702;2024-01-07T14:19:05;5.28;;;3.03;;
43150;SDS011;28755;51.478;5.702;2024-01-07T14:21:31;4.43;;;2.85;;
43150;SDS011;28755;51.478;5.702;2024-01-07T14:23:56;5.28;;;3.08;;